createdAt,value
2019-05-21T00:01:34.939Z,31.47
2019-05-21T00:04:06.924Z,35.10
2019-05-21T00:06:38.887Z,35.03
2019-05-21T00:09:10.921Z,36.10
2019-05-21T00:11:42.854Z,35.50
2019-05-21T00:14:14.871Z,36.43
2019-05-21T00:16:46.835Z,34.47
2019-05-21T00:19:18.855Z,38.10
2019-05-21T00:21:50.850Z,36.67
2019-05-21T00:24:22.843Z,37.63
2019-05-21T00:26:54.793Z,38.87
2019-05-21T00:30:03.326Z,39.73
2019-05-21T00:33:12.241Z,41.00
2019-05-21T00:36:22.590Z,39.70
2019-05-21T00:39:31.319Z,39.37
2019-05-21T00:42:02.369Z,42.10
2019-05-21T00:44:39.907Z,42.50
2019-05-21T00:47:12.369Z,41.20
2019-05-21T00:49:44.355Z,40.50
2019-05-21T00:52:16.305Z,40.97
2019-05-21T00:54:48.317Z,39.93
2019-05-21T00:57:20.255Z,42.13
2019-05-21T00:59:52.268Z,41.30
2019-05-21T01:02:24.255Z,40.80
2019-05-21T01:05:00.563Z,41.53
2019-05-21T01:07:30.125Z,41.60
2019-05-21T01:10:02.486Z,37.97
2019-05-21T01:12:34.889Z,39.40
2019-05-21T01:15:06.869Z,38.60
2019-05-21T01:17:38.870Z,39.20
2019-05-21T01:20:10.913Z,39.77
2019-05-21T01:22:42.895Z,39.37
2019-05-21T01:25:14.883Z,38.77
2019-05-21T01:27:46.837Z,36.97
2019-05-21T01:30:18.830Z,34.90
2019-05-21T01:32:50.798Z,33.77
2019-05-21T01:35:22.800Z,31.40
2019-05-21T01:37:54.768Z,31.73
2019-05-21T01:40:26.747Z,31.57
2019-05-21T01:42:58.704Z,30.70
2019-05-21T01:45:30.669Z,32.27
2019-05-21T01:48:02.683Z,30.37
2019-05-21T01:50:34.725Z,29.80
2019-05-21T01:53:06.713Z,29.00
2019-05-21T01:55:38.675Z,27.73
2019-05-21T01:58:10.684Z,28.73
2019-05-21T02:00:42.651Z,28.73
2019-05-21T02:03:14.632Z,28.63
2019-05-21T02:05:46.633Z,25.23
2019-05-21T02:08:18.625Z,27.93
2019-05-21T02:10:50.596Z,28.90
2019-05-21T02:13:22.593Z,29.07
2019-05-21T02:15:54.576Z,31.40
2019-05-21T02:18:26.554Z,30.47
2019-05-21T02:20:58.510Z,30.27
2019-05-21T02:23:30.722Z,27.67
2019-05-21T02:26:02.925Z,31.00
2019-05-21T02:28:34.902Z,31.37
2019-05-21T02:31:06.897Z,31.40
2019-05-21T02:33:38.969Z,29.90
2019-05-21T02:36:10.922Z,30.30
2019-05-21T02:38:43.031Z,30.00
2019-05-21T02:41:14.991Z,30.60
2019-05-21T02:43:47.056Z,30.00
2019-05-21T02:46:19.003Z,29.33
2019-05-21T02:48:51.016Z,29.13
2019-05-21T02:51:23.097Z,29.07
2019-05-21T02:53:55.146Z,28.50
2019-05-21T02:56:27.106Z,28.67
2019-05-21T02:58:59.102Z,28.97
2019-05-21T03:01:49.399Z,28.77
2019-05-21T03:04:21.368Z,27.57
2019-05-21T03:06:55.602Z,29.73
2019-05-21T03:09:27.580Z,28.63
2019-05-21T03:11:59.589Z,27.57
2019-05-21T03:14:31.555Z,28.53
2019-05-21T03:17:03.522Z,27.70
2019-05-21T03:19:35.494Z,28.63
2019-05-21T03:22:07.578Z,29.27
2019-05-21T03:24:39.555Z,28.83
2019-05-21T03:27:11.528Z,28.70
2019-05-21T03:29:43.524Z,28.57
2019-05-21T03:32:15.508Z,28.10
2019-05-21T03:34:47.481Z,28.80
2019-05-21T03:37:19.431Z,28.20
2019-05-21T03:39:51.404Z,29.33
2019-05-21T03:42:23.347Z,30.67
2019-05-21T03:44:59.704Z,29.67
2019-05-21T03:47:29.279Z,29.90
2019-05-21T03:50:01.253Z,28.70
2019-05-21T03:52:33.432Z,31.07
2019-05-21T03:55:05.807Z,29.90
2019-05-21T03:57:37.756Z,29.20
2019-05-21T04:00:10.756Z,29.57
2019-05-21T04:02:42.706Z,31.70
2019-05-21T04:05:22.346Z,31.87
2019-05-21T04:07:54.309Z,32.63
2019-05-21T04:10:26.262Z,33.30
2019-05-21T04:13:08.094Z,33.57
2019-05-21T04:15:59.276Z,32.53
2019-05-21T04:18:39.339Z,33.17
2019-05-21T04:21:11.456Z,32.10
2019-05-21T04:23:43.502Z,32.03
2019-05-21T04:26:15.573Z,31.50
2019-05-21T04:28:47.615Z,30.80
2019-05-21T04:31:19.579Z,30.13
2019-05-21T04:33:51.580Z,28.83
2019-05-21T04:36:23.551Z,29.90
2019-05-21T04:38:55.502Z,29.47
2019-05-21T04:41:27.477Z,28.60
2019-05-21T04:43:59.427Z,29.00
2019-05-21T04:46:31.537Z,27.80
2019-05-21T04:49:03.512Z,25.97
2019-05-21T04:51:35.511Z,28.27
2019-05-21T04:54:07.498Z,28.23
2019-05-21T04:56:39.773Z,28.13
2019-05-21T04:59:11.735Z,26.57
2019-05-21T05:01:43.788Z,26.77
2019-05-21T05:04:21.131Z,26.83
2019-05-21T05:06:49.674Z,26.73
2019-05-21T05:09:21.635Z,25.33
2019-05-21T05:11:53.685Z,25.93
2019-05-21T05:14:25.698Z,25.13
2019-05-21T05:16:57.705Z,24.10
2019-05-21T05:19:29.769Z,23.23
2019-05-21T05:22:01.728Z,23.57
2019-05-21T05:24:37.023Z,24.70
2019-05-21T05:27:07.661Z,23.17
2019-05-21T05:29:39.596Z,22.33
2019-05-21T05:32:11.611Z,22.03
2019-05-21T05:34:43.584Z,21.27
2019-05-21T05:37:15.563Z,19.63
2019-05-21T05:39:47.539Z,21.27
2019-05-21T05:42:19.501Z,20.90
2019-05-21T05:44:51.487Z,19.20
2019-05-21T05:47:23.471Z,18.43
2019-05-21T05:49:57.610Z,18.90
2019-05-21T05:52:29.651Z,17.50
2019-05-21T05:55:01.633Z,16.60
2019-05-21T05:57:33.587Z,16.13
2019-05-21T06:00:08.400Z,14.77
2019-05-21T06:02:40.417Z,13.97
2019-05-21T06:05:12.496Z,13.87
2019-05-21T06:07:58.839Z,13.80
2019-05-21T06:10:18.457Z,13.10
2019-05-21T06:12:50.429Z,11.90
2019-05-21T06:15:22.693Z,12.57
2019-05-21T06:17:54.742Z,12.20
2019-05-21T06:20:26.699Z,11.67
2019-05-21T06:22:58.764Z,11.20
2019-05-21T06:25:30.766Z,10.10
2019-05-21T06:28:02.696Z,9.87
2019-05-21T06:30:34.682Z,8.90
2019-05-21T06:33:06.662Z,8.47
2019-05-21T06:35:38.637Z,8.37
2019-05-21T06:38:17.685Z,7.90
2019-05-21T06:40:44.562Z,7.33
2019-05-21T06:43:16.532Z,6.57
2019-05-21T06:45:48.497Z,5.97
2019-05-21T06:48:20.442Z,6.00
2019-05-21T06:50:52.459Z,5.90
2019-05-21T06:53:24.409Z,5.57
2019-05-21T06:55:56.437Z,5.20
2019-05-21T06:58:28.401Z,5.30
2019-05-21T07:01:00.399Z,4.93
2019-05-21T07:03:32.477Z,4.70
2019-05-21T07:06:04.451Z,4.57
2019-05-21T07:08:36.418Z,4.40
2019-05-21T07:11:08.408Z,4.37
2019-05-21T07:13:40.453Z,4.00
2019-05-21T07:16:12.464Z,3.70
2019-05-21T07:18:44.466Z,3.70
2019-05-21T07:21:16.450Z,4.10
2019-05-21T07:23:48.444Z,4.10
2019-05-21T07:26:20.514Z,3.77
2019-05-21T07:28:54.380Z,3.67
2019-05-21T07:31:26.689Z,3.50
2019-05-21T07:33:58.717Z,3.60
2019-05-21T07:36:33.658Z,3.10
2019-05-21T07:39:06.158Z,3.20
2019-05-21T07:41:38.167Z,3.40
2019-05-21T07:44:10.146Z,3.03
2019-05-21T07:46:42.123Z,3.20
2019-05-21T07:49:14.208Z,3.07
2019-05-21T07:51:46.198Z,3.20
2019-05-21T07:54:18.223Z,2.90
2019-05-21T07:56:50.190Z,3.30
2019-05-21T07:59:22.183Z,3.10
2019-05-21T08:01:54.158Z,3.07
2019-05-21T08:04:26.155Z,3.10
2019-05-21T08:06:58.141Z,2.90
2019-05-21T08:09:30.106Z,2.80
2019-05-21T08:12:18.296Z,2.43
2019-05-21T08:14:36.048Z,2.90
2019-05-21T08:17:08.068Z,3.03
2019-05-21T08:19:40.043Z,2.80
2019-05-21T08:22:12.048Z,2.60
2019-05-21T08:24:44.020Z,2.87
2019-05-21T08:27:16.028Z,3.13
2019-05-21T08:29:48.044Z,3.07
2019-05-21T08:32:20.344Z,3.43
2019-05-21T08:34:52.322Z,2.90
2019-05-21T08:37:24.329Z,2.90
2019-05-21T08:39:56.317Z,2.83
2019-05-21T08:42:28.303Z,3.13
2019-05-21T08:45:00.321Z,2.83
2019-05-21T08:47:32.295Z,2.63
2019-05-21T08:50:05.046Z,3.00
2019-05-21T08:52:37.050Z,2.80
2019-05-21T08:55:09.083Z,2.77
2019-05-21T08:57:41.048Z,2.40
2019-05-21T09:00:15.397Z,2.43
2019-05-21T09:02:47.385Z,2.60
2019-05-21T09:05:19.455Z,2.53
2019-05-21T09:07:53.579Z,2.43
2019-05-21T09:10:25.375Z,2.77
2019-05-21T09:12:57.481Z,3.07
2019-05-21T09:15:29.541Z,3.20
2019-05-21T09:18:01.626Z,3.57
2019-05-21T09:20:33.657Z,2.80
2019-05-21T09:23:05.656Z,4.67
2019-05-21T09:25:37.653Z,2.93
2019-05-21T09:28:09.687Z,2.87
2019-05-21T09:30:41.676Z,3.27
2019-05-21T09:33:13.626Z,3.30
2019-05-21T09:35:45.716Z,2.60
2019-05-21T09:38:17.933Z,2.50
2019-05-21T09:40:50.494Z,2.70
2019-05-21T09:43:22.460Z,3.00
2019-05-21T09:45:54.475Z,3.37
2019-05-21T09:48:26.502Z,3.97
2019-05-21T09:50:58.517Z,3.40
2019-05-21T09:53:30.574Z,3.73
2019-05-21T09:56:22.179Z,3.20
2019-05-21T09:58:56.063Z,3.20
2019-05-21T10:01:40.789Z,3.43
2019-05-21T10:04:12.743Z,3.70
2019-05-21T10:06:44.727Z,3.87
2019-05-21T10:09:18.707Z,3.80
2019-05-21T10:11:50.752Z,3.97
2019-05-21T10:14:22.771Z,3.93
2019-05-21T10:16:54.778Z,4.50
2019-05-21T10:19:26.763Z,4.93
2019-05-21T10:21:58.835Z,4.70
2019-05-21T10:24:30.783Z,4.90
2019-05-21T10:27:03.525Z,5.00
2019-05-21T10:29:35.673Z,4.27
2019-05-21T10:32:07.713Z,5.60
2019-05-21T10:34:39.687Z,6.03
2019-05-21T10:37:11.720Z,5.60
2019-05-21T10:39:43.683Z,6.10
2019-05-21T10:42:15.691Z,5.27
2019-05-21T10:44:47.795Z,4.20
2019-05-21T10:47:19.753Z,4.73
2019-05-21T10:49:51.727Z,4.90
2019-05-21T10:52:24.074Z,5.00
2019-05-21T10:54:56.062Z,5.30
2019-05-21T10:57:28.130Z,5.00
2019-05-21T11:00:00.144Z,4.70
2019-05-21T11:02:55.255Z,4.53
2019-05-21T11:05:35.590Z,5.30
2019-05-21T11:08:24.801Z,5.00
2019-05-21T11:10:41.771Z,4.57
2019-05-21T11:13:14.184Z,4.50
2019-05-21T11:15:46.161Z,5.70
2019-05-21T11:18:18.140Z,5.50
2019-05-21T11:20:50.136Z,5.80
2019-05-21T11:23:22.211Z,5.70
2019-05-21T11:25:54.216Z,5.67
2019-05-21T11:28:26.232Z,5.77
2019-05-21T11:30:58.204Z,5.07
2019-05-21T11:33:30.222Z,5.27
2019-05-21T11:36:02.238Z,5.60
2019-05-21T11:38:40.059Z,5.17
2019-05-21T11:41:08.229Z,5.80
2019-05-21T11:43:40.207Z,4.93
2019-05-21T11:46:12.219Z,5.23
2019-05-21T11:48:44.251Z,5.27
2019-05-21T11:51:16.549Z,5.47
2019-05-21T11:53:48.668Z,4.60
2019-05-21T11:56:20.671Z,5.10
2019-05-21T11:58:52.714Z,4.50
2019-05-21T12:01:24.757Z,5.13
2019-05-21T12:03:56.806Z,5.60
2019-05-21T12:06:28.815Z,5.17
2019-05-21T12:09:00.851Z,4.73
2019-05-21T12:11:32.809Z,4.97
2019-05-21T12:14:05.035Z,5.03
2019-05-21T12:16:37.129Z,4.73
2019-05-21T12:19:09.232Z,4.50
2019-05-21T12:21:41.189Z,4.60
2019-05-21T12:24:13.261Z,4.60
2019-05-21T12:26:45.248Z,5.30
2019-05-21T12:29:17.270Z,5.77
2019-05-21T12:31:49.247Z,4.80
2019-05-21T12:34:21.346Z,4.90
2019-05-21T12:36:53.636Z,5.20
2019-05-21T12:39:25.673Z,5.37
2019-05-21T12:41:57.684Z,5.33
2019-05-21T12:44:29.862Z,4.93
2019-05-21T12:47:01.872Z,5.27
2019-05-21T12:49:33.883Z,5.23
2019-05-21T12:52:05.948Z,5.03
2019-05-21T12:54:37.924Z,4.97
2019-05-21T12:57:09.957Z,4.97
2019-05-21T12:59:41.944Z,5.00
2019-05-21T13:02:13.956Z,4.80
2019-05-21T13:04:45.962Z,4.93
2019-05-21T13:07:17.970Z,5.00
2019-05-21T13:09:49.995Z,7.57
2019-05-21T13:12:22.029Z,5.40
2019-05-21T13:14:54.803Z,5.03
2019-05-21T13:17:26.847Z,5.30
2019-05-21T13:19:58.900Z,5.70
2019-05-21T13:22:30.989Z,9.33
2019-05-21T13:25:03.716Z,6.33
2019-05-21T13:27:35.768Z,4.70
2019-05-21T13:30:08.180Z,4.57
2019-05-21T13:32:43.669Z,5.40
2019-05-21T13:35:14.191Z,3.50
2019-05-21T13:37:46.202Z,3.63
2019-05-21T13:40:18.405Z,4.33
2019-05-21T13:42:50.405Z,3.50
2019-05-21T13:45:22.411Z,3.10
2019-05-21T13:47:54.392Z,3.63
2019-05-21T13:50:26.413Z,3.60
2019-05-21T13:52:58.448Z,4.27
2019-05-21T13:55:33.990Z,3.67
2019-05-21T13:58:04.346Z,3.60
2019-05-21T14:00:51.946Z,3.53
2019-05-21T14:03:23.939Z,4.00
2019-05-21T14:05:55.990Z,3.50
2019-05-21T14:08:27.991Z,3.60
2019-05-21T14:11:00.069Z,4.30
2019-05-21T14:13:32.203Z,4.07
2019-05-21T14:16:04.279Z,3.50
2019-05-21T14:18:36.301Z,3.17
2019-05-21T14:21:08.327Z,3.07
2019-05-21T14:23:40.396Z,3.43
2019-05-21T14:26:12.432Z,3.50
2019-05-21T14:28:45.629Z,3.37
2019-05-21T14:31:17.651Z,3.50
2019-05-21T14:33:49.698Z,3.90
2019-05-21T14:36:21.785Z,3.60
2019-05-21T14:38:53.768Z,3.80
2019-05-21T14:41:25.885Z,3.53
2019-05-21T14:43:57.900Z,4.20
2019-05-21T14:46:29.949Z,3.63
2019-05-21T14:49:01.985Z,3.70
2019-05-21T14:51:34.021Z,4.10
2019-05-21T14:54:06.477Z,3.80
2019-05-21T14:56:38.452Z,3.90
2019-05-21T14:59:10.454Z,3.90
2019-05-21T15:01:42.440Z,4.20
2019-05-21T15:04:14.599Z,4.87
2019-05-21T15:06:46.825Z,5.57
2019-05-21T15:09:18.842Z,5.07
2019-05-21T15:11:50.938Z,4.97
2019-05-21T15:14:22.977Z,5.87
2019-05-21T15:16:55.050Z,5.63
2019-05-21T15:19:27.060Z,5.10
2019-05-21T15:21:59.076Z,4.63
2019-05-21T15:24:33.444Z,5.07
2019-05-21T15:27:05.127Z,4.50
2019-05-21T15:29:37.177Z,4.60
2019-05-21T15:32:09.235Z,4.40
2019-05-21T15:34:41.257Z,3.70
2019-05-21T15:37:13.378Z,3.50
2019-05-21T15:39:45.372Z,3.43
2019-05-21T15:42:18.834Z,5.70
2019-05-21T15:44:50.919Z,4.37
2019-05-21T15:47:22.958Z,4.30
2019-05-21T15:49:54.989Z,3.73
2019-05-21T15:52:27.047Z,3.73
2019-05-21T15:54:59.076Z,3.90
2019-05-21T15:57:31.133Z,3.63
2019-05-21T16:00:04.010Z,4.03
2019-05-21T16:02:36.050Z,3.87
2019-05-21T16:05:08.175Z,3.80
2019-05-21T16:07:40.228Z,3.83
2019-05-21T16:10:12.332Z,3.80
2019-05-21T16:12:44.391Z,4.00
2019-05-21T16:15:16.408Z,4.10
2019-05-21T16:17:48.455Z,4.07
2019-05-21T16:20:20.437Z,4.23
2019-05-21T16:22:52.503Z,4.37
2019-05-21T16:25:24.919Z,4.23
2019-05-21T16:27:56.940Z,4.37
2019-05-21T16:30:28.988Z,6.00
2019-05-21T16:33:01.041Z,5.70
2019-05-21T16:35:33.406Z,7.63
2019-05-21T16:38:05.633Z,7.00
2019-05-21T16:40:37.651Z,7.03
2019-05-21T16:43:09.711Z,7.47
2019-05-21T16:45:41.723Z,16.37
2019-05-21T16:48:13.789Z,18.90
2019-05-21T16:50:45.854Z,5.97
2019-05-21T16:53:17.880Z,8.50
2019-05-21T16:55:49.954Z,5.27
2019-05-21T16:58:22.036Z,7.00
2019-05-21T17:00:54.026Z,4.90
2019-05-21T17:03:26.049Z,5.87
2019-05-21T17:05:58.053Z,6.40
2019-05-21T17:08:30.270Z,4.77
2019-05-21T17:11:02.311Z,3.77
2019-05-21T17:13:34.392Z,4.73
2019-05-21T17:16:06.480Z,3.67
2019-05-21T17:18:38.508Z,3.47
2019-05-21T17:21:10.777Z,6.37
2019-05-21T17:23:42.788Z,7.73
2019-05-21T17:26:14.887Z,6.27
2019-05-21T17:28:46.888Z,4.73
2019-05-21T17:31:18.995Z,5.17
2019-05-21T17:33:51.111Z,5.13
2019-05-21T17:36:23.152Z,4.53
2019-05-21T17:38:55.175Z,4.70
2019-05-21T17:41:27.347Z,4.90
2019-05-21T17:43:59.420Z,5.47
2019-05-21T17:46:31.671Z,5.70
2019-05-21T17:49:03.697Z,5.43
2019-05-21T17:51:35.858Z,6.17
2019-05-21T17:54:08.018Z,5.77
2019-05-21T17:56:40.100Z,6.13
2019-05-21T17:59:12.114Z,6.00
2019-05-21T18:01:44.434Z,6.57
2019-05-21T18:04:16.566Z,5.93
2019-05-21T18:06:48.968Z,6.63
2019-05-21T18:09:22.765Z,6.97
2019-05-21T18:11:55.005Z,6.97
2019-05-21T18:14:27.807Z,7.27
2019-05-21T18:17:00.130Z,8.20
2019-05-21T18:19:32.465Z,8.70
2019-05-21T18:22:05.529Z,9.33
2019-05-21T18:24:38.580Z,8.90
2019-05-21T18:27:10.770Z,10.07
2019-05-21T18:29:42.822Z,9.43
2019-05-21T18:32:15.070Z,12.33
2019-05-21T18:34:47.118Z,12.10
2019-05-21T18:37:19.318Z,10.77
2019-05-21T18:39:51.354Z,9.77
2019-05-21T18:42:23.540Z,10.10
2019-05-21T18:44:55.578Z,9.60
2019-05-21T18:47:27.733Z,9.53
2019-05-21T18:49:59.792Z,8.50
2019-05-21T18:52:31.924Z,7.00
2019-05-21T18:55:04.961Z,8.23
2019-05-21T18:57:37.004Z,9.97
2019-05-21T19:00:09.771Z,13.63
2019-05-21T19:02:42.138Z,14.70
2019-05-21T19:05:14.357Z,11.77
2019-05-21T19:07:46.667Z,8.03
2019-05-21T19:10:18.636Z,7.17
2019-05-21T19:12:50.730Z,7.63
2019-05-21T19:15:22.769Z,6.47
2019-05-21T19:17:54.873Z,6.97
2019-05-21T19:20:26.887Z,7.87
2019-05-21T19:22:59.016Z,7.93
2019-05-21T19:25:31.039Z,8.17
2019-05-21T19:28:03.133Z,7.77
2019-05-21T19:30:35.163Z,8.33
2019-05-21T19:33:07.228Z,7.33
2019-05-21T19:35:39.269Z,7.80
2019-05-21T19:38:11.373Z,8.00
2019-05-21T19:40:43.522Z,7.40
2019-05-21T19:43:15.648Z,6.90
2019-05-21T19:45:47.715Z,7.30
2019-05-21T19:48:19.839Z,7.97
2019-05-21T19:50:51.852Z,8.57
2019-05-21T19:53:23.984Z,8.13
2019-05-21T19:55:56.107Z,7.50
2019-05-21T19:58:28.060Z,8.80
2019-05-21T20:01:00.532Z,9.53
2019-05-21T20:03:32.561Z,8.83
2019-05-21T20:06:05.068Z,9.57
2019-05-21T20:08:37.350Z,12.37
2019-05-21T20:11:09.463Z,17.53
2019-05-21T20:13:41.658Z,20.97
2019-05-21T20:16:14.166Z,13.37
2019-05-21T20:18:46.456Z,11.93
2019-05-21T20:21:19.037Z,13.37
2019-05-21T20:23:51.533Z,13.77
2019-05-21T20:26:24.277Z,12.73
2019-05-21T20:28:56.313Z,15.03
2019-05-21T20:31:28.991Z,17.20
2019-05-21T20:34:01.537Z,15.90
2019-05-21T20:36:33.706Z,16.83
2019-05-21T20:39:08.005Z,40.67
2019-05-21T20:41:41.366Z,33.40
2019-05-21T20:44:15.434Z,20.43
2019-05-21T20:46:47.861Z,19.60
2019-05-21T20:49:19.917Z,15.67
2019-05-21T20:51:52.371Z,16.73
2019-05-21T20:54:26.655Z,19.30
2019-05-21T20:56:58.948Z,17.90
2019-05-21T20:59:30.917Z,21.60
2019-05-21T21:02:05.818Z,17.90
2019-05-21T21:04:38.009Z,18.70
2019-05-21T21:07:10.013Z,15.30
2019-05-21T21:09:42.075Z,12.90
2019-05-21T21:12:14.489Z,13.33
2019-05-21T21:14:47.990Z,13.83
2019-05-21T21:17:20.122Z,14.20
2019-05-21T21:19:52.644Z,14.00
2019-05-21T21:22:24.710Z,16.30
2019-05-21T21:24:56.693Z,18.20
2019-05-21T21:27:28.794Z,18.63
2019-05-21T21:30:00.773Z,18.27
2019-05-21T21:32:33.895Z,21.17
2019-05-21T21:35:08.163Z,19.77
2019-05-21T21:37:40.181Z,18.70
2019-05-21T21:40:13.981Z,19.83
2019-05-21T21:42:46.022Z,20.40
2019-05-21T21:45:18.019Z,21.93
2019-05-21T21:47:50.280Z,21.80
2019-05-21T21:50:22.778Z,24.80
2019-05-21T21:52:54.845Z,25.80
2019-05-21T21:55:26.789Z,28.67
2019-05-21T21:57:58.800Z,27.27
2019-05-21T22:01:19.199Z,29.50
2019-05-21T22:03:51.199Z,30.20
2019-05-21T22:06:24.655Z,33.60
2019-05-21T22:08:57.021Z,33.70
2019-05-21T22:11:29.200Z,32.43
2019-05-21T22:14:02.426Z,34.30
2019-05-21T22:16:34.707Z,33.37
2019-05-21T22:19:07.625Z,34.27
2019-05-21T22:21:39.603Z,33.73
2019-05-21T22:24:12.802Z,33.37
2019-05-21T22:26:44.959Z,35.00
2019-05-21T22:29:16.977Z,35.00
2019-05-21T22:31:48.948Z,33.83
2019-05-21T22:34:21.355Z,35.63
2019-05-21T22:36:53.400Z,34.90
2019-05-21T22:39:31.708Z,32.30
2019-05-21T22:42:04.290Z,33.00
2019-05-21T22:44:36.796Z,34.60
2019-05-21T22:47:10.068Z,34.57
2019-05-21T22:49:42.077Z,34.67
2019-05-21T22:52:14.157Z,34.43
2019-05-21T22:54:46.114Z,34.30
2019-05-21T22:57:18.118Z,33.73
2019-05-21T22:59:50.057Z,34.47
2019-05-21T23:02:26.985Z,33.47
2019-05-21T23:04:59.133Z,32.70
2019-05-21T23:07:31.155Z,35.97
2019-05-21T23:10:04.789Z,36.10
2019-05-21T23:12:37.361Z,35.63
2019-05-21T23:15:23.755Z,34.67
2019-05-21T23:17:43.333Z,35.83
2019-05-21T23:20:16.272Z,36.03
2019-05-21T23:22:48.597Z,36.40
2019-05-21T23:25:21.575Z,37.07
2019-05-21T23:27:53.534Z,36.03
2019-05-21T23:30:26.457Z,35.63
2019-05-21T23:32:59.340Z,35.33
2019-05-21T23:35:31.914Z,34.03
2019-05-21T23:38:05.405Z,34.67
2019-05-21T23:40:37.689Z,36.87
2019-05-21T23:43:09.786Z,36.60
2019-05-21T23:45:42.037Z,35.23
2019-05-21T23:48:14.620Z,35.10
2019-05-21T23:50:46.670Z,37.53
2019-05-21T23:53:18.846Z,36.80
2019-05-21T23:55:51.089Z,35.93
2019-05-21T23:58:23.158Z,37.47
